Time;durP1;ratioP1;P1;durP2;ratioP2;P2;SDS_P1;SDS_P2;PMS_P1;PMS_P2;Temp;Humidity;BMP_temperature;BMP_pressure;BME280_temperature;BME280_humidity;BME280_pressure;Samples;Min_cycle;Max_cycle;Signal;HPM_P1;HPM_P2
2021/05/15 00:02:03;;;;;;;9.82;8.13;;;;;;;;;;4991198;28;20023;-58
2021/05/15 00:04:29;;;;;;;10.63;9.25;;;;;;;;;;4990070;28;20022;-58
2021/05/15 00:06:56;;;;;;;9.80;8.38;;;;;;;;;;4989285;28;20026;-58
2021/05/15 00:09:22;;;;;;;11.10;9.25;;;;;;;;;;4985162;28;20041;-58
2021/05/15 00:11:48;;;;;;;8.93;8.02;;;;;;;;;;4993096;28;20118;-57
2021/05/15 00:14:14;;;;;;;10.77;8.25;;;;;;;;;;4992882;28;20085;-57
2021/05/15 00:16:41;;;;;;;10.23;8.20;;;;;;;;;;4992974;28;20490;-58
2021/05/15 00:19:07;;;;;;;8.70;7.80;;;;;;;;;;4990711;28;20026;-58
2021/05/15 00:21:33;;;;;;;13.55;8.43;;;;;;;;;;4987201;28;20034;-57
2021/05/15 00:23:59;;;;;;;8.85;6.82;;;;;;;;;;4984415;28;20047;-57
2021/05/15 00:26:27;;;;;;;10.68;6.55;;;;;;;;;;4991389;28;20443;-57
2021/05/15 00:28:53;;;;;;;9.73;7.30;;;;;;;;;;4992298;28;20080;-56
2021/05/15 00:31:20;;;;;;;8.00;7.20;;;;;;;;;;4992348;28;20439;-57
2021/05/15 00:33:46;;;;;;;8.60;6.85;;;;;;;;;;4987456;28;20094;-57
2021/05/15 00:36:12;;;;;;;10.15;7.63;;;;;;;;;;4980236;28;20041;-57
2021/05/15 00:38:39;;;;;;;10.18;7.93;;;;;;;;;;4992395;28;20022;-57
2021/05/15 00:41:05;;;;;;;9.88;6.78;;;;;;;;;;4992224;28;20042;-57
2021/05/15 00:43:31;;;;;;;8.02;7.22;;;;;;;;;;4990690;28;20554;-58
2021/05/15 00:45:57;;;;;;;8.20;7.40;;;;;;;;;;4990937;28;20105;-58
2021/05/15 00:48:24;;;;;;;8.02;6.97;;;;;;;;;;4982238;28;20069;-57
2021/05/15 00:50:50;;;;;;;9.68;8.38;;;;;;;;;;4985132;28;20461;-57
2021/05/15 00:53:18;;;;;;;10.80;7.93;;;;;;;;;;4992351;28;20136;-57
2021/05/15 00:55:44;;;;;;;12.02;8.40;;;;;;;;;;4990795;28;20508;-57
2021/05/15 00:58:11;;;;;;;9.57;7.97;;;;;;;;;;4985605;28;20033;-57
2021/05/15 01:00:37;;;;;;;9.25;7.85;;;;;;;;;;4981316;28;20064;-57
2021/05/15 01:03:03;;;;;;;8.43;7.57;;;;;;;;;;4987723;28;20027;-57
2021/05/15 01:05:29;;;;;;;12.35;7.90;;;;;;;;;;4981666;28;20043;-56
2021/05/15 01:07:56;;;;;;;9.40;7.80;;;;;;;;;;4990786;28;20409;-57
2021/05/15 01:10:22;;;;;;;7.53;6.45;;;;;;;;;;4992197;28;20041;-57
2021/05/15 01:12:53;;;;;;;7.63;6.60;;;;;;;;;;4990024;28;20030;-57
2021/05/15 01:15:20;;;;;;;8.75;7.07;;;;;;;;;;4990581;28;20042;-57
2021/05/15 01:17:50;;;;;;;9.88;8.48;;;;;;;;;;4991629;28;20483;-57
2021/05/15 01:20:17;;;;;;;10.57;8.65;;;;;;;;;;4991588;28;20053;-57
2021/05/15 01:22:43;;;;;;;9.98;8.65;;;;;;;;;;4990116;28;20106;-57
2021/05/15 01:25:10;;;;;;;10.90;8.65;;;;;;;;;;4991661;28;20034;-57
2021/05/15 01:27:36;;;;;;;10.95;9.38;;;;;;;;;;4990248;28;20385;-58
2021/05/15 01:30:03;;;;;;;10.70;8.65;;;;;;;;;;4979406;28;20347;-57
2021/05/15 01:32:29;;;;;;;9.73;8.73;;;;;;;;;;4991414;28;20033;-57
2021/05/15 01:34:56;;;;;;;11.50;9.43;;;;;;;;;;4986611;28;20466;-57
2021/05/15 01:37:22;;;;;;;9.98;8.98;;;;;;;;;;4978495;28;20031;-57
2021/05/15 01:39:48;;;;;;;9.82;7.90;;;;;;;;;;4990198;28;20350;-57
2021/05/15 01:42:14;;;;;;;10.93;9.38;;;;;;;;;;4990036;28;20043;-58
2021/05/15 01:44:40;;;;;;;11.93;9.02;;;;;;;;;;4990412;28;20031;-57
2021/05/15 01:47:07;;;;;;;10.95;8.82;;;;;;;;;;4990789;28;20041;-57
2021/05/15 01:49:33;;;;;;;10.02;7.90;;;;;;;;;;4979091;28;20037;-57
2021/05/15 01:51:59;;;;;;;8.95;7.57;;;;;;;;;;4990267;28;20058;-57
2021/05/15 01:54:26;;;;;;;10.02;8.15;;;;;;;;;;4991293;28;20033;-57
2021/05/15 01:56:52;;;;;;;8.40;7.55;;;;;;;;;;4991473;28;20088;-57
2021/05/15 01:59:18;;;;;;;10.38;8.32;;;;;;;;;;4991186;28;20022;-58
2021/05/15 02:01:44;;;;;;;9.63;8.48;;;;;;;;;;4990886;28;20065;-58
2021/05/15 02:04:10;;;;;;;9.20;8.23;;;;;;;;;;4991189;28;20042;-57
2021/05/15 02:06:36;;;;;;;11.20;8.43;;;;;;;;;;4991259;28;20022;-58
2021/05/15 02:09:03;;;;;;;12.30;9.50;;;;;;;;;;4991059;28;20049;-58
2021/05/15 02:11:29;;;;;;;9.65;8.63;;;;;;;;;;4990945;28;20080;-57
2021/05/15 02:13:55;;;;;;;10.30;8.52;;;;;;;;;;4991329;28;20030;-57
2021/05/15 02:16:22;;;;;;;8.95;7.47;;;;;;;;;;4990953;28;20027;-57
2021/05/15 02:18:48;;;;;;;9.38;8.32;;;;;;;;;;4990956;28;20041;-58
2021/05/15 02:21:15;;;;;;;9.90;8.52;;;;;;;;;;4991591;28;20053;-57
2021/05/15 02:23:41;;;;;;;9.63;7.28;;;;;;;;;;4991113;28;20019;-57
2021/05/15 02:26:07;;;;;;;9.05;7.63;;;;;;;;;;4991394;28;20457;-57
2021/05/15 02:28:33;;;;;;;8.38;6.90;;;;;;;;;;4994016;28;20026;-58
2021/05/15 02:30:59;;;;;;;7.70;6.95;;;;;;;;;;4994958;28;20055;-57
2021/05/15 02:33:25;;;;;;;12.68;8.73;;;;;;;;;;4985900;28;20048;-61
2021/05/15 02:35:53;;;;;;;12.00;8.60;;;;;;;;;;4994612;28;20461;-57
2021/05/15 02:38:20;;;;;;;10.20;8.55;;;;;;;;;;4994810;28;20085;-57
2021/05/15 02:40:47;;;;;;;8.70;7.43;;;;;;;;;;4992966;28;20573;-58
2021/05/15 02:43:16;;;;;;;9.25;8.35;;;;;;;;;;4992268;28;20054;-57
2021/05/15 02:45:43;;;;;;;9.45;8.45;;;;;;;;;;4994288;28;20521;-58
2021/05/15 02:48:09;;;;;;;10.57;8.63;;;;;;;;;;4992615;28;20019;-58
2021/05/15 02:50:36;;;;;;;8.93;7.97;;;;;;;;;;4994300;28;20018;-58
2021/05/15 02:53:02;;;;;;;9.07;8.18;;;;;;;;;;4988699;28;20470;-58
2021/05/15 02:55:28;;;;;;;9.88;8.73;;;;;;;;;;4992464;28;20054;-58
2021/05/15 02:57:55;;;;;;;10.63;8.90;;;;;;;;;;4975983;28;20026;-58
2021/05/15 03:00:25;;;;;;;9.15;7.88;;;;;;;;;;4994316;28;20113;-57
2021/05/15 03:02:52;;;;;;;11.82;8.98;;;;;;;;;;4992725;28;20140;-57
2021/05/15 03:05:23;;;;;;;11.30;9.55;;;;;;;;;;4991513;28;20137;-56
2021/05/15 03:07:49;;;;;;;12.43;9.80;;;;;;;;;;4992370;28;20477;-57
2021/05/15 03:10:16;;;;;;;11.02;9.73;;;;;;;;;;4992843;28;20026;-57
2021/05/15 03:12:43;;;;;;;11.75;9.68;;;;;;;;;;4993869;28;20022;-58
2021/05/15 03:15:11;;;;;;;10.40;9.30;;;;;;;;;;4993822;28;20101;-58
2021/05/15 03:17:42;;;;;;;13.23;10.35;;;;;;;;;;4993914;28;20018;-57
2021/05/15 03:20:09;;;;;;;11.63;9.90;;;;;;;;;;4974721;28;20042;-57
2021/05/15 03:22:35;;;;;;;13.70;10.40;;;;;;;;;;4976413;28;20050;-56
2021/05/15 03:25:02;;;;;;;12.63;10.50;;;;;;;;;;4992370;28;20026;-57
2021/05/15 03:27:28;;;;;;;12.00;9.65;;;;;;;;;;4993117;28;20082;-57
2021/05/15 03:29:54;;;;;;;13.07;11.35;;;;;;;;;;4993817;28;20169;-57
2021/05/15 03:32:20;;;;;;;12.95;10.68;;;;;;;;;;4993502;28;20077;-57
2021/05/15 03:34:46;;;;;;;20.55;13.70;;;;;;;;;;4993221;28;20037;-57
2021/05/15 03:37:13;;;;;;;29.15;18.27;;;;;;;;;;4993346;28;20027;-57
2021/05/15 03:39:39;;;;;;;17.75;14.40;;;;;;;;;;4992282;28;20353;-57
2021/05/15 03:42:06;;;;;;;16.60;12.60;;;;;;;;;;4991973;28;20046;-57
2021/05/15 03:44:32;;;;;;;14.98;12.05;;;;;;;;;;4992039;28;20033;-57
2021/05/15 03:46:58;;;;;;;15.95;13.30;;;;;;;;;;4992854;28;20489;-56
2021/05/15 03:49:24;;;;;;;13.98;11.77;;;;;;;;;;4976269;28;20034;-56
2021/05/15 03:51:50;;;;;;;13.43;11.00;;;;;;;;;;5007424;28;20125;-57
2021/05/15 03:54:16;;;;;;;14.35;12.60;;;;;;;;;;4991287;28;20113;-57
2021/05/15 03:56:43;;;;;;;15.90;11.73;;;;;;;;;;4992669;28;20466;-57
2021/05/15 03:59:09;;;;;;;17.05;12.27;;;;;;;;;;4993091;28;20031;-57
2021/05/15 04:01:35;;;;;;;16.92;12.93;;;;;;;;;;4989808;28;20030;-57
2021/05/15 04:04:01;;;;;;;13.75;11.68;;;;;;;;;;4985292;28;20485;-57
2021/05/15 04:06:28;;;;;;;17.27;12.85;;;;;;;;;;4991539;28;20359;-57
2021/05/15 04:08:54;;;;;;;15.45;13.00;;;;;;;;;;4992723;28;20062;-57
2021/05/15 04:11:21;;;;;;;13.25;11.32;;;;;;;;;;4993048;28;20092;-57
2021/05/15 04:16:17;;;;;;;12.77;10.23;;;;;;;;;;4988309;28;20058;-57
2021/05/15 04:18:44;;;;;;;14.07;11.80;;;;;;;;;;4995018;28;20035;-57
2021/05/15 04:21:10;;;;;;;13.07;11.18;;;;;;;;;;4981893;28;20039;-57
2021/05/15 04:23:36;;;;;;;12.45;9.43;;;;;;;;;;4981906;28;20026;-56
2021/05/15 04:26:03;;;;;;;11.05;9.50;;;;;;;;;;4992664;28;20057;-57
2021/05/15 04:28:29;;;;;;;9.82;8.07;;;;;;;;;;4990370;28;20022;-57
2021/05/15 04:30:56;;;;;;;9.57;8.57;;;;;;;;;;4993004;28;20018;-57
2021/05/15 04:33:24;;;;;;;9.73;8.73;;;;;;;;;;4992422;28;20089;-57
2021/05/15 04:35:51;;;;;;;10.20;8.55;;;;;;;;;;4991036;28;20054;-57
2021/05/15 04:38:18;;;;;;;9.65;8.65;;;;;;;;;;4992466;28;20105;-57
2021/05/15 04:40:44;;;;;;;10.25;8.73;;;;;;;;;;4991226;28;20334;-57
2021/05/15 04:43:11;;;;;;;12.85;10.80;;;;;;;;;;4991985;28;20050;-58
2021/05/15 04:45:37;;;;;;;14.38;11.82;;;;;;;;;;4991865;28;20027;-57
2021/05/15 04:48:03;;;;;;;11.48;10.07;;;;;;;;;;4991884;28;20022;-57
2021/05/15 04:50:30;;;;;;;14.20;11.55;;;;;;;;;;4991973;28;20022;-57
2021/05/15 04:52:56;;;;;;;15.77;13.13;;;;;;;;;;4990182;28;20253;-57
2021/05/15 04:55:22;;;;;;;17.63;13.38;;;;;;;;;;4991221;28;20473;-59
2021/05/15 04:57:48;;;;;;;15.48;13.40;;;;;;;;;;4991490;28;20023;-57
2021/05/15 05:00:15;;;;;;;18.73;14.55;;;;;;;;;;4990301;28;20038;-58
2021/05/15 05:02:41;;;;;;;18.67;15.15;;;;;;;;;;4991566;28;20030;-58
2021/05/15 05:05:08;;;;;;;15.50;13.20;;;;;;;;;;4990905;28;20030;-57
2021/05/15 05:07:34;;;;;;;18.02;13.68;;;;;;;;;;4987551;28;20101;-58
2021/05/15 05:10:00;;;;;;;19.38;14.45;;;;;;;;;;5005946;28;20027;-58
2021/05/15 05:12:26;;;;;;;17.05;14.45;;;;;;;;;;4992047;28;20019;-58
2021/05/15 05:14:52;;;;;;;16.33;14.02;;;;;;;;;;4991960;28;20109;-58
2021/05/15 05:17:19;;;;;;;16.10;14.32;;;;;;;;;;4992479;28;20073;-59
2021/05/15 05:19:45;;;;;;;16.27;14.32;;;;;;;;;;4990709;28;20045;-59
2021/05/15 05:22:11;;;;;;;17.02;13.70;;;;;;;;;;4990466;28;20177;-59
2021/05/15 05:24:39;;;;;;;15.65;13.45;;;;;;;;;;4987220;28;20482;-59
2021/05/15 05:27:08;;;;;;;15.52;13.75;;;;;;;;;;4992042;28;20576;-58
2021/05/15 05:29:34;;;;;;;17.20;14.00;;;;;;;;;;4992318;28;20081;-59
2021/05/15 05:32:00;;;;;;;15.77;14.05;;;;;;;;;;4992054;28;20117;-59
2021/05/15 05:34:26;;;;;;;17.80;13.98;;;;;;;;;;4991482;28;20027;-58
2021/05/15 05:36:54;;;;;;;15.68;13.40;;;;;;;;;;4991486;28;20123;-59
2021/05/15 05:39:20;;;;;;;17.27;14.95;;;;;;;;;;4990640;28;20027;-59
2021/05/15 05:41:47;;;;;;;17.13;13.80;;;;;;;;;;4991740;28;20390;-59
2021/05/15 05:44:14;;;;;;;16.58;13.75;;;;;;;;;;4999268;28;20030;-59
2021/05/15 05:46:40;;;;;;;17.25;14.55;;;;;;;;;;4991817;28;20113;-59
2021/05/15 05:49:06;;;;;;;18.52;15.50;;;;;;;;;;4991825;28;20120;-59
2021/05/15 05:51:33;;;;;;;19.65;15.30;;;;;;;;;;4991811;28;20019;-58
2021/05/15 05:53:59;;;;;;;19.00;13.82;;;;;;;;;;4990891;28;20613;-58
2021/05/15 05:56:25;;;;;;;18.05;14.48;;;;;;;;;;4992108;28;20493;-58
2021/05/15 05:58:51;;;;;;;16.88;14.13;;;;;;;;;;4990876;28;20053;-59
2021/05/15 06:01:18;;;;;;;16.08;12.98;;;;;;;;;;4991958;28;20039;-56
2021/05/15 06:03:44;;;;;;;17.15;14.25;;;;;;;;;;4994791;28;20347;-59
2021/05/15 06:06:11;;;;;;;15.98;13.75;;;;;;;;;;4994624;28;20038;-58
2021/05/15 06:08:38;;;;;;;19.63;14.88;;;;;;;;;;4996096;28;20030;-58
2021/05/15 06:11:04;;;;;;;19.17;14.77;;;;;;;;;;4995975;28;20024;-59
2021/05/15 06:13:31;;;;;;;17.80;13.93;;;;;;;;;;4995277;28;20069;-58
2021/05/15 06:15:57;;;;;;;19.48;14.02;;;;;;;;;;4994179;28;20316;-58
2021/05/15 06:18:23;;;;;;;18.05;14.48;;;;;;;;;;4995149;28;20149;-57
2021/05/15 06:20:49;;;;;;;18.70;14.98;;;;;;;;;;4991532;28;20113;-58
2021/05/15 06:23:15;;;;;;;19.80;14.05;;;;;;;;;;4968722;28;20022;-57
2021/05/15 06:25:42;;;;;;;19.88;15.00;;;;;;;;;;4988221;28;20038;-58
2021/05/15 06:28:08;;;;;;;19.20;14.48;;;;;;;;;;4988539;28;20037;-59
2021/05/15 06:30:34;;;;;;;17.98;14.88;;;;;;;;;;4993200;28;20033;-57
2021/05/15 06:33:01;;;;;;;16.80;14.50;;;;;;;;;;4983804;28;20037;-55
2021/05/15 06:35:27;;;;;;;18.52;14.43;;;;;;;;;;4989990;28;20033;-57
2021/05/15 06:37:53;;;;;;;17.33;13.52;;;;;;;;;;4988849;28;20034;-57
2021/05/15 06:40:19;;;;;;;19.58;15.32;;;;;;;;;;4985567;28;20038;-58
2021/05/15 06:42:46;;;;;;;18.80;15.40;;;;;;;;;;4977913;28;20050;-57
2021/05/15 06:45:12;;;;;;;22.02;16.23;;;;;;;;;;4988243;28;20092;-57
2021/05/15 06:47:39;;;;;;;19.55;14.63;;;;;;;;;;4989139;28;20018;-57
2021/05/15 06:50:06;;;;;;;18.88;14.55;;;;;;;;;;4987579;28;20080;-57
2021/05/15 06:52:32;;;;;;;17.02;13.93;;;;;;;;;;4972473;28;20039;-58
2021/05/15 06:54:58;;;;;;;18.52;15.52;;;;;;;;;;4984616;28;20078;-57
2021/05/15 06:57:25;;;;;;;22.10;15.40;;;;;;;;;;4982413;28;20105;-58
2021/05/15 06:59:51;;;;;;;20.27;16.30;;;;;;;;;;4980882;28;20129;-58
2021/05/15 07:02:17;;;;;;;19.85;14.45;;;;;;;;;;4974574;28;22184;-56
2021/05/15 07:04:44;;;;;;;19.27;14.68;;;;;;;;;;4978871;28;20030;-57
2021/05/15 07:07:10;;;;;;;18.58;14.60;;;;;;;;;;4981473;28;20366;-59
2021/05/15 07:09:36;;;;;;;17.02;13.57;;;;;;;;;;4983295;28;20478;-58
2021/05/15 07:12:02;;;;;;;15.70;12.75;;;;;;;;;;4975283;28;20031;-58
2021/05/15 07:14:28;;;;;;;18.23;14.35;;;;;;;;;;4986574;28;20434;-58
2021/05/15 07:16:55;;;;;;;14.00;11.43;;;;;;;;;;4980905;28;20026;-57
2021/05/15 07:19:21;;;;;;;21.45;15.85;;;;;;;;;;4983043;28;20038;-58
2021/05/15 07:21:47;;;;;;;21.35;15.27;;;;;;;;;;4977600;28;20082;-57
2021/05/15 07:24:13;;;;;;;19.05;16.33;;;;;;;;;;4976286;28;20031;-58
2021/05/15 07:26:39;;;;;;;20.73;14.90;;;;;;;;;;4981500;28;20027;-59
2021/05/15 07:29:06;;;;;;;20.73;15.05;;;;;;;;;;4982181;28;20077;-59
2021/05/15 07:31:32;;;;;;;21.02;16.27;;;;;;;;;;4978975;28;22199;-57
2021/05/15 07:34:05;;;;;;;18.80;15.68;;;;;;;;;;4973426;28;20037;-59
2021/05/15 07:36:40;;;;;;;16.58;13.75;;;;;;;;;;4982596;28;20045;-58
2021/05/15 07:39:07;;;;;;;21.38;15.40;;;;;;;;;;4981795;28;20034;-58
2021/05/15 07:41:33;;;;;;;20.05;15.50;;;;;;;;;;4980426;28;20149;-57
2021/05/15 07:44:01;;;;;;;17.77;14.50;;;;;;;;;;4974898;28;20068;-58
2021/05/15 07:46:28;;;;;;;18.02;14.65;;;;;;;;;;4976687;28;20498;-57
2021/05/15 07:48:54;;;;;;;16.25;12.48;;;;;;;;;;4981733;28;20026;-58
2021/05/15 07:51:21;;;;;;;16.60;13.68;;;;;;;;;;4978038;28;20030;-58
2021/05/15 07:53:51;;;;;;;19.35;13.45;;;;;;;;;;4972376;28;20054;-56
2021/05/15 07:56:18;;;;;;;20.08;13.30;;;;;;;;;;4982474;28;20072;-57
2021/05/15 07:58:44;;;;;;;15.73;12.75;;;;;;;;;;4979646;28;20041;-57
2021/05/15 08:01:10;;;;;;;17.95;12.77;;;;;;;;;;4979052;28;20038;-59
2021/05/15 08:03:36;;;;;;;17.17;12.85;;;;;;;;;;4973078;28;20438;-57
2021/05/15 08:06:03;;;;;;;15.13;12.18;;;;;;;;;;4980880;28;20034;-56
2021/05/15 08:08:29;;;;;;;12.52;8.82;;;;;;;;;;4980676;28;20041;-58
2021/05/15 08:10:55;;;;;;;8.23;6.55;;;;;;;;;;4981209;28;20044;-58
2021/05/15 08:13:23;;;;;;;10.70;8.20;;;;;;;;;;4969469;28;20037;-58
2021/05/15 08:15:50;;;;;;;12.40;8.48;;;;;;;;;;4980714;28;20405;-58
2021/05/15 08:18:16;;;;;;;10.07;7.47;;;;;;;;;;4994345;28;20019;-57
2021/05/15 08:20:42;;;;;;;11.02;7.38;;;;;;;;;;4990329;28;20472;-57
2021/05/15 08:23:08;;;;;;;10.45;7.80;;;;;;;;;;4971887;28;20044;-58
2021/05/15 08:25:35;;;;;;;11.48;8.48;;;;;;;;;;4979252;28;20037;-57
2021/05/15 08:28:06;;;;;;;12.60;8.75;;;;;;;;;;4980171;28;20113;-57
2021/05/15 08:30:32;;;;;;;13.98;9.90;;;;;;;;;;4979598;28;20042;-58
2021/05/15 08:32:58;;;;;;;12.73;9.88;;;;;;;;;;4970783;28;20502;-57
2021/05/15 08:35:25;;;;;;;14.88;9.48;;;;;;;;;;4982581;28;20030;-58
2021/05/15 08:37:52;;;;;;;14.48;10.15;;;;;;;;;;4983119;28;20027;-57
2021/05/15 08:40:19;;;;;;;10.77;9.07;;;;;;;;;;4979292;28;20069;-57
2021/05/15 08:42:47;;;;;;;9.88;7.55;;;;;;;;;;4973108;28;20154;-57
2021/05/15 08:45:14;;;;;;;10.55;8.32;;;;;;;;;;4977938;28;20140;-57
2021/05/15 08:47:41;;;;;;;10.98;8.20;;;;;;;;;;4977637;28;20045;-57
2021/05/15 08:50:09;;;;;;;9.00;6.45;;;;;;;;;;4980498;28;20031;-56
2021/05/15 08:52:39;;;;;;;6.90;5.13;;;;;;;;;;4971582;28;20029;-58
2021/05/15 08:55:07;;;;;;;6.55;4.35;;;;;;;;;;4978789;28;20030;-58
2021/05/15 08:57:34;;;;;;;6.78;5.00;;;;;;;;;;4981312;28;20809;-57
2021/05/15 09:00:01;;;;;;;7.50;5.38;;;;;;;;;;4991114;28;20153;-57
2021/05/15 09:02:27;;;;;;;6.82;4.95;;;;;;;;;;4991012;28;20027;-58
2021/05/15 09:04:53;;;;;;;6.13;4.22;;;;;;;;;;4991154;28;20022;-58
2021/05/15 09:07:19;;;;;;;6.45;4.10;;;;;;;;;;4992690;28;20019;-58
2021/05/15 09:09:47;;;;;;;8.65;5.00;;;;;;;;;;4991058;28;20354;-57
2021/05/15 09:12:13;;;;;;;5.85;4.43;;;;;;;;;;4989921;28;20539;-57
2021/05/15 09:14:39;;;;;;;7.68;4.80;;;;;;;;;;4973229;28;20023;-57
2021/05/15 09:17:05;;;;;;;6.03;5.10;;;;;;;;;;4982853;28;20026;-57
2021/05/15 09:19:32;;;;;;;8.98;5.90;;;;;;;;;;4991844;28;20138;-57
2021/05/15 09:22:06;;;;;;;9.27;6.50;;;;;;;;;;4992173;28;20031;-57
2021/05/15 09:24:32;;;;;;;7.70;5.43;;;;;;;;;;4991645;28;20433;-57
2021/05/15 09:26:59;;;;;;;6.38;5.35;;;;;;;;;;4992418;28;20023;-57
2021/05/15 09:29:26;;;;;;;8.65;5.88;;;;;;;;;;4992563;28;20045;-57
2021/05/15 09:31:52;;;;;;;8.48;5.93;;;;;;;;;;4992428;28;20019;-57
2021/05/15 09:34:18;;;;;;;8.25;5.45;;;;;;;;;;4992301;28;20105;-57
2021/05/15 09:36:47;;;;;;;7.05;5.72;;;;;;;;;;4992376;28;20023;-57
2021/05/15 09:39:13;;;;;;;6.88;5.38;;;;;;;;;;4996610;28;20057;-57
2021/05/15 09:41:45;;;;;;;6.93;5.82;;;;;;;;;;4995843;28;20027;-57
2021/05/15 09:44:13;;;;;;;9.63;5.40;;;;;;;;;;4996522;28;20023;-56
2021/05/15 09:46:40;;;;;;;6.75;4.95;;;;;;;;;;4996353;28;20470;-57
2021/05/15 09:49:07;;;;;;;8.20;5.53;;;;;;;;;;4995944;28;20129;-57
2021/05/15 09:51:34;;;;;;;8.93;6.00;;;;;;;;;;4994852;28;20354;-57
2021/05/15 09:54:17;;;;;;;6.97;5.88;;;;;;;;;;4995684;28;20030;-57
2021/05/15 09:56:43;;;;;;;8.32;5.30;;;;;;;;;;4976645;28;20034;-58
2021/05/15 09:59:11;;;;;;;7.43;5.68;;;;;;;;;;4991073;28;20108;-57
2021/05/15 10:01:42;;;;;;;9.32;6.00;;;;;;;;;;4995827;28;20025;-56
2021/05/15 10:04:08;;;;;;;7.38;5.38;;;;;;;;;;4995865;28;20018;-57
2021/05/15 10:06:35;;;;;;;8.73;6.35;;;;;;;;;;4995690;28;20031;-57
2021/05/15 10:09:01;;;;;;;7.03;5.18;;;;;;;;;;4995972;28;20097;-57
2021/05/15 10:11:27;;;;;;;7.88;5.65;;;;;;;;;;4994582;28;20026;-57
2021/05/15 10:13:54;;;;;;;6.47;5.45;;;;;;;;;;4995622;28;20029;-57
2021/05/15 10:16:20;;;;;;;7.28;5.85;;;;;;;;;;4995823;28;20377;-57
2021/05/15 10:18:47;;;;;;;6.20;5.20;;;;;;;;;;4995644;28;20025;-57
2021/05/15 10:21:13;;;;;;;8.73;5.28;;;;;;;;;;4995765;28;20508;-57
2021/05/15 10:23:44;;;;;;;7.60;5.07;;;;;;;;;;4995570;28;20030;-57
2021/05/15 10:26:16;;;;;;;6.55;4.90;;;;;;;;;;4978084;28;20503;-58
2021/05/15 10:28:44;;;;;;;6.25;4.60;;;;;;;;;;4995770;28;20018;-58
2021/05/15 10:31:14;;;;;;;6.85;5.50;;;;;;;;;;4995387;28;20492;-57
2021/05/15 10:33:41;;;;;;;6.85;5.82;;;;;;;;;;4995226;28;20035;-57
2021/05/15 10:36:18;;;;;;;6.97;5.47;;;;;;;;;;4994021;28;20030;-57
2021/05/15 10:38:44;;;;;;;8.27;6.25;;;;;;;;;;4994999;28;20084;-57
2021/05/15 10:41:11;;;;;;;6.43;5.50;;;;;;;;;;4993045;28;20031;-57
2021/05/15 10:43:38;;;;;;;9.38;5.82;;;;;;;;;;4993670;28;20050;-57
2021/05/15 10:46:19;;;;;;;9.10;6.72;;;;;;;;;;4995174;28;20042;-57
2021/05/15 10:49:04;;;;;;;8.82;6.68;;;;;;;;;;4995273;28;20384;-57
2021/05/15 10:51:37;;;;;;;9.18;6.35;;;;;;;;;;4991168;28;20037;-57
2021/05/15 10:54:05;;;;;;;7.97;6.07;;;;;;;;;;4982834;28;20031;-58
2021/05/15 10:56:31;;;;;;;8.00;5.70;;;;;;;;;;4995074;28;20027;-57
2021/05/15 10:59:08;;;;;;;6.10;5.50;;;;;;;;;;4992310;28;20154;-57
2021/05/15 11:01:45;;;;;;;7.88;4.53;;;;;;;;;;4994664;28;20034;-57
2021/05/15 11:04:37;;;;;;;6.38;4.45;;;;;;;;;;4993704;28;20057;-57
2021/05/15 11:07:10;;;;;;;5.07;4.03;;;;;;;;;;4964805;28;20084;-58
2021/05/15 11:09:38;;;;;;;5.38;4.60;;;;;;;;;;4994602;28;20018;-58
2021/05/15 11:12:05;;;;;;;4.53;3.85;;;;;;;;;;4993135;28;20097;-58
2021/05/15 11:14:33;;;;;;;3.45;2.83;;;;;;;;;;4994129;28;20029;-58
2021/05/15 11:17:16;;;;;;;4.28;2.35;;;;;;;;;;4986701;28;20023;-59
2021/05/15 11:19:53;;;;;;;3.15;2.53;;;;;;;;;;4994659;28;20014;-59
2021/05/15 11:22:19;;;;;;;4.70;3.05;;;;;;;;;;4994666;28;20110;-58
2021/05/15 11:24:53;;;;;;;3.80;3.22;;;;;;;;;;4993115;28;20050;-58
2021/05/15 11:27:20;;;;;;;3.63;3.03;;;;;;;;;;4994653;28;20057;-59
2021/05/15 11:29:50;;;;;;;3.42;2.72;;;;;;;;;;4994426;28;20084;-59
2021/05/15 11:32:17;;;;;;;3.47;2.25;;;;;;;;;;4992445;28;20137;-59
2021/05/15 11:34:43;;;;;;;3.13;1.98;;;;;;;;;;4979179;28;20023;-56
2021/05/15 11:37:11;;;;;;;2.85;2.30;;;;;;;;;;4975106;28;20023;-57
2021/05/15 11:39:37;;;;;;;3.60;2.85;;;;;;;;;;4992578;28;20023;-57
2021/05/15 11:42:05;;;;;;;3.35;2.30;;;;;;;;;;4994227;28;20070;-58
2021/05/15 11:44:31;;;;;;;4.15;2.45;;;;;;;;;;4993941;28;20390;-58
2021/05/15 11:46:57;;;;;;;4.63;2.40;;;;;;;;;;4994460;28;20358;-59
2021/05/15 11:49:27;;;;;;;3.50;2.17;;;;;;;;;;4994229;28;20029;-58
2021/05/15 11:52:04;;;;;;;2.80;2.15;;;;;;;;;;4994431;28;20014;-58
2021/05/15 11:54:31;;;;;;;2.75;2.00;;;;;;;;;;4992499;28;20026;-58
2021/05/15 11:56:57;;;;;;;2.67;1.80;;;;;;;;;;4992577;28;20481;-58
2021/05/15 11:59:24;;;;;;;1.88;1.30;;;;;;;;;;4982459;28;20026;-58
2021/05/15 12:01:51;;;;;;;3.35;1.85;;;;;;;;;;4992749;28;20038;-58
2021/05/15 12:04:19;;;;;;;6.95;3.17;;;;;;;;;;4994085;28;20022;-58
2021/05/15 12:06:49;;;;;;;2.60;1.67;;;;;;;;;;4992531;28;20022;-58
2021/05/15 12:09:16;;;;;;;3.80;1.60;;;;;;;;;;4992190;28;20041;-58
2021/05/15 12:11:43;;;;;;;2.65;1.63;;;;;;;;;;4992242;28;20010;-58
2021/05/15 12:14:09;;;;;;;2.00;1.20;;;;;;;;;;4992238;28;20034;-58
2021/05/15 12:16:36;;;;;;;1.98;1.40;;;;;;;;;;4993461;28;20097;-58
2021/05/15 12:19:02;;;;;;;2.15;1.30;;;;;;;;;;4992177;28;20464;-58
2021/05/15 12:21:29;;;;;;;2.17;1.30;;;;;;;;;;4993345;28;20091;-59
2021/05/15 12:24:01;;;;;;;3.08;1.42;;;;;;;;;;4988495;28;20027;-56
2021/05/15 12:26:27;;;;;;;;;;;;;;;;;;4986232;28;20049;-57
2021/05/15 12:28:53;;;;;;;5.00;2.28;;;;;;;;;;4986826;28;19906;-57
2021/05/15 12:31:27;;;;;;;2.88;1.60;;;;;;;;;;4982496;28;20094;-57
2021/05/15 12:33:56;;;;;;;3.50;1.63;;;;;;;;;;4992742;28;20029;-57
2021/05/15 12:36:22;;;;;;;1.65;1.45;;;;;;;;;;4986521;28;20027;-58
2021/05/15 12:38:52;;;;;;;3.30;1.30;;;;;;;;;;4985102;28;20049;-58
2021/05/15 12:41:21;;;;;;;5.60;1.60;;;;;;;;;;4992970;28;20030;-59
2021/05/15 12:43:48;;;;;;;4.70;1.50;;;;;;;;;;4991612;28;20054;-58
2021/05/15 12:46:18;;;;;;;4.82;1.77;;;;;;;;;;4991631;28;20458;-58
2021/05/15 12:48:55;;;;;;;2.85;1.70;;;;;;;;;;4991421;28;20034;-58
2021/05/15 12:51:27;;;;;;;1.80;1.10;;;;;;;;;;4993132;28;20157;-58
2021/05/15 12:53:53;;;;;;;1.27;1.02;;;;;;;;;;4992999;28;20014;-58
2021/05/15 12:56:33;;;;;;;3.55;1.00;;;;;;;;;;4983048;28;20038;-58
2021/05/15 12:58:59;;;;;;;3.30;1.50;;;;;;;;;;4987855;28;20070;-57
2021/05/15 13:01:25;;;;;;;1.77;1.40;;;;;;;;;;4992439;28;20049;-57
2021/05/15 13:03:55;;;;;;;2.70;1.20;;;;;;;;;;4987759;28;20125;-57
2021/05/15 13:06:22;;;;;;;2.67;1.45;;;;;;;;;;4984958;28;20026;-57
2021/05/15 13:08:55;;;;;;;1.88;1.00;;;;;;;;;;4980560;28;20176;-57
2021/05/15 13:11:22;;;;;;;2.20;1.10;;;;;;;;;;4974396;28;20498;-58
2021/05/15 13:13:48;;;;;;;3.38;1.60;;;;;;;;;;4991400;28;20018;-57
2021/05/15 13:16:15;;;;;;;2.60;1.20;;;;;;;;;;4992625;28;20030;-57
2021/05/15 13:18:41;;;;;;;1.92;1.30;;;;;;;;;;4992717;28;20026;-57
2021/05/15 13:21:08;;;;;;;3.05;1.17;;;;;;;;;;4992484;28;20073;-57
2021/05/15 13:23:34;;;;;;;1.52;1.10;;;;;;;;;;4992659;28;20070;-58
2021/05/15 13:26:01;;;;;;;3.58;1.27;;;;;;;;;;4986802;28;20030;-58
2021/05/15 13:28:27;;;;;;;2.58;1.35;;;;;;;;;;4988013;28;20434;-58
2021/05/15 13:30:53;;;;;;;2.95;1.30;;;;;;;;;;4973500;28;20505;-57
2021/05/15 13:33:19;;;;;;;2.03;1.40;;;;;;;;;;5001315;28;20066;-57
2021/05/15 13:35:46;;;;;;;1.88;1.42;;;;;;;;;;4975044;28;20023;-57
2021/05/15 13:38:12;;;;;;;1.90;1.25;;;;;;;;;;4992450;28;20023;-57
2021/05/15 13:40:39;;;;;;;1.50;1.02;;;;;;;;;;4992167;28;20023;-57
2021/05/15 13:43:05;;;;;;;3.10;1.00;;;;;;;;;;4992259;28;20112;-58
2021/05/15 13:45:32;;;;;;;1.58;1.20;;;;;;;;;;4991176;28;20524;-58
2021/05/15 13:47:58;;;;;;;1.65;1.00;;;;;;;;;;4991167;28;20489;-58
2021/05/15 13:50:25;;;;;;;1.35;0.80;;;;;;;;;;4992504;28;20362;-58
2021/05/15 13:52:51;;;;;;;1.83;1.05;;;;;;;;;;4992291;28;20027;-59
2021/05/15 13:55:18;;;;;;;3.78;1.10;;;;;;;;;;4992463;28;20019;-58
2021/05/15 13:57:45;;;;;;;2.00;1.23;;;;;;;;;;4990357;28;20465;-58
2021/05/15 14:00:11;;;;;;;2.33;1.13;;;;;;;;;;4992565;28;20081;-58
2021/05/15 14:02:40;;;;;;;3.60;1.08;;;;;;;;;;4988808;28;20130;-58
2021/05/15 14:05:08;;;;;;;3.63;1.73;;;;;;;;;;4987464;28;20039;-59
2021/05/15 14:07:34;;;;;;;3.25;0.95;;;;;;;;;;4991080;28;20085;-59
2021/05/15 14:10:01;;;;;;;1.13;1.00;;;;;;;;;;4991065;28;20021;-58
2021/05/15 14:12:27;;;;;;;4.53;1.58;;;;;;;;;;4992105;28;20034;-58
2021/05/15 14:14:53;;;;;;;3.42;1.27;;;;;;;;;;4992251;28;20088;-58
2021/05/15 14:17:19;;;;;;;5.05;1.30;;;;;;;;;;4991329;28;20049;-57
2021/05/15 14:19:46;;;;;;;1.73;1.30;;;;;;;;;;4990849;28;20080;-57
2021/05/15 14:22:12;;;;;;;3.28;1.10;;;;;;;;;;4991348;28;20343;-58
2021/05/15 14:24:39;;;;;;;2.15;1.05;;;;;;;;;;4994941;28;20393;-58
2021/05/15 14:27:06;;;;;;;2.08;1.23;;;;;;;;;;4978076;28;20037;-59
2021/05/15 14:29:32;;;;;;;2.17;1.35;;;;;;;;;;4976376;28;20033;-58
2021/05/15 14:31:59;;;;;;;2.28;1.05;;;;;;;;;;4991416;28;20033;-58
2021/05/15 14:34:25;;;;;;;1.85;1.20;;;;;;;;;;4976336;28;20082;-58
2021/05/15 14:36:51;;;;;;;1.88;1.20;;;;;;;;;;4999976;28;20032;-58